Time;durP1;ratioP1;P1;durP2;ratioP2;P2;SDS_P1;SDS_P2;PMS_P1;PMS_P2;Temp;Humidity;BMP_temperature;BMP_pressure;BME280_temperature;BME280_humidity;BME280_pressure;Samples;Min_cycle;Max_cycle;Signal;HPM_P1;HPM_P2
2022/04/28 00:00:50;;;;;;;;;;;;;;;;;;5061715;28;1243;-74
2022/04/28 00:03:15;;;;;;;;;;;;;;;;;;5060510;28;1298;-73
2022/04/28 00:05:41;;;;;;;;;;;;;;;;;;5061787;28;1890;-72
2022/04/28 00:08:07;;;;;;;;;;;;;;;;;;5060665;28;1547;-72
2022/04/28 00:10:33;;;;;;;;;;;;;;;;;;5060453;28;1584;-72
2022/04/28 00:13:00;;;;;;;;;;;;;;;;;;5061027;28;1262;-72
2022/04/28 00:15:25;;;;;;;;;;;;;;;;;;5059078;28;1558;-73
2022/04/28 00:17:51;;;;;;;;;;;;;;;;;;5056838;28;1640;-72
2022/04/28 00:20:16;;;;;;;;;;;;;;;;;;5058371;28;1508;-74
2022/04/28 00:22:41;;;;;;;;;;;;;;;;;;5060044;28;1511;-74
2022/04/28 00:25:06;;;;;;;;;;;;;;;;;;5061031;28;1906;-74
2022/04/28 00:27:33;;;;;;;;;;;;;;;;;;5060708;28;1445;-74
2022/04/28 00:29:58;;;;;;;;;;;;;;;;;;5060520;28;1252;-75
2022/04/28 00:32:24;;;;;;;;;;;;;;;;;;5061050;28;1227;-74
2022/04/28 00:34:49;;;;;;;;;;;;;;;;;;5061265;28;1290;-74
2022/04/28 00:37:14;;;;;;;;;;;;;;;;;;5060422;28;1484;-74
2022/04/28 00:39:40;;;;;;;;;;;;;;;;;;5060004;28;1461;-75
2022/04/28 00:42:09;;;;;;;;;;;;;;;;;;5059573;28;1528;-75
2022/04/28 00:44:34;;;;;;;;;;;;;;;;;;5060956;28;1286;-75
2022/04/28 00:46:59;;;;;;;;;;;;;;;;;;5058170;28;1922;-75
2022/04/28 00:52:08;;;;;;;;;;;;;;;;;;5058412;28;1759;-75
2022/04/28 00:54:34;;;;;;;;;;;;;;;;;;5059216;28;1552;-75
2022/04/28 00:57:00;;;;;;;;;;;;;;;;;;5056887;28;1256;-75
2022/04/28 00:59:27;;;;;;;;;;;;;;;;;;5060724;28;1365;-75
2022/04/28 01:01:53;;;;;;;;;;;;;;;;;;5060741;28;1329;-75
2022/04/28 01:04:18;;;;;;;;;;;;;;;;;;5058158;28;1587;-76
2022/04/28 01:06:43;;;;;;;;;;;;;;;;;;5059300;28;1898;-75
2022/04/28 01:09:09;;;;;;;;;;;;;;;;;;5059315;28;1565;-76
2022/04/28 01:11:34;;;;;;;;;;;;;;;;;;5059337;28;1520;-76
2022/04/28 01:14:00;;;;;;;;;;;;;;;;;;5058059;28;1512;-76
2022/04/28 01:16:25;;;;;;;;;;;;;;;;;;5060784;28;1306;-76
2022/04/28 01:18:50;;;;;;;;;;;;;;;;;;5058275;28;1583;-76
2022/04/28 01:21:15;;;;;;;;;;;;;;;;;;5058653;28;1703;-76
2022/04/28 01:23:41;;;;;;;;;;;;;;;;;;5059152;28;1488;-76
2022/04/28 01:26:06;;;;;;;;;;;;;;;;;;5058178;28;1906;-76
2022/04/28 01:28:32;;;;;;;;;;;;;;;;;;5058744;28;1528;-77
2022/04/28 01:31:01;;;;;;;;;;;;;;;;;;5058803;28;1583;-76
2022/04/28 01:33:26;;;;;;;;;;;;;;;;;;5058885;28;1555;-76
2022/04/28 01:35:51;;;;;;;;;;;;;;;;;;5059820;28;1524;-76
2022/04/28 01:38:17;;;;;;;;;;;;;;;;;;5058533;28;1344;-76
2022/04/28 01:40:43;;;;;;;;;;;;;;;;;;5059653;28;1528;-76
2022/04/28 01:43:08;;;;;;;;;;;;;;;;;;5059290;28;1550;-75
2022/04/28 01:45:33;;;;;;;;;;;;;;;;;;5059904;28;1967;-75
2022/04/28 01:47:59;;;;;;;;;;;;;;;;;;5058410;28;1473;-75
2022/04/28 01:50:24;;;;;;;;;;;;;;;;;;5058612;28;1528;-75
2022/04/28 01:55:33;;;;;;;;;;;;;;;;;;5058425;28;1555;-75
2022/04/28 01:57:59;;;;;;;;;;;;;;;;;;5059601;28;1279;-76
2022/04/28 02:00:24;;;;;;;;;;;;;;;;;;5060371;28;1318;-75
2022/04/28 02:02:49;;;;;;;;;;;;;;;;;;5056614;28;1422;-76
2022/04/28 02:05:14;;;;;;;;;;;;;;;;;;5059304;28;1890;-76
2022/04/28 02:07:40;;;;;;;;;;;;;;;;;;5058666;28;1643;-76
2022/04/28 02:10:05;;;;;;;;;;;;;;;;;;5059366;28;1653;-75
2022/04/28 02:12:31;;;;;;;;;;;;;;;;;;5058815;28;1500;-75
2022/04/28 02:14:56;;;;;;;;;;;;;;;;;;5058324;28;1500;-76
2022/04/28 02:17:25;;;;;;;;;;;;;;;;;;5058366;28;1604;-75
2022/04/28 02:19:50;;;;;;;;;;;;;;;;;;5053921;28;1646;-75
2022/04/28 02:22:16;;;;;;;;;;;;;;;;;;5055919;28;1603;-75
2022/04/28 02:24:41;;;;;;;;;;;;;;;;;;5061809;28;1539;-74
2022/04/28 02:27:07;;;;;;;;;;;;;;;;;;5063448;28;1898;-74
2022/04/28 02:29:32;;;;;;;;;;;;;;;;;;5062885;28;1259;-74
2022/04/28 02:31:58;;;;;;;;;;;;;;;;;;5060951;28;1645;-75
2022/04/28 02:34:23;;;;;;;;;;;;;;;;;;5062621;28;1551;-75
2022/04/28 02:36:48;;;;;;;;;;;;;;;;;;5062462;28;1513;-75
2022/04/28 02:39:14;;;;;;;;;;;;;;;;;;5061817;28;1676;-75
2022/04/28 02:41:40;;;;;;;;;;;;;;;;;;5061662;28;1532;-74
2022/04/28 02:44:06;;;;;;;;;;;;;;;;;;5062889;28;1262;-73
2022/04/28 02:46:31;;;;;;;;;;;;;;;;;;5062638;28;1901;-73
2022/04/28 02:48:57;;;;;;;;;;;;;;;;;;5061479;28;1184;-73
2022/04/28 02:51:22;;;;;;;;;;;;;;;;;;5062161;28;1584;-72
2022/04/28 02:53:47;;;;;;;;;;;;;;;;;;5060958;28;1504;-72
2022/04/28 02:56:12;;;;;;;;;;;;;;;;;;5064201;28;1250;-73
2022/04/28 02:58:38;;;;;;;;;;;;;;;;;;5060212;28;1493;-73
2022/04/28 03:01:03;;;;;;;;;;;;;;;;;;5061947;28;1543;-73
2022/04/28 03:03:29;;;;;;;;;;;;;;;;;;5060560;28;1477;-74
2022/04/28 03:11:26;;;;;;;;;;;;;;;;;;5062451;28;1332;-74
2022/04/28 03:13:52;;;;;;;;;;;;;;;;;;5061658;28;1556;-74
2022/04/28 03:16:17;;;;;;;;;;;;;;;;;;5062182;28;1520;-74
2022/04/28 03:18:44;;;;;;;;;;;;;;;;;;5061313;28;1587;-74
2022/04/28 03:21:10;;;;;;;;;;;;;;;;;;5061894;28;1470;-74
2022/04/28 03:23:35;;;;;;;;;;;;;;;;;;5060714;28;1488;-75
2022/04/28 03:26:01;;;;;;;;;;;;;;;;;;5061906;28;1902;-75
2022/04/28 03:28:26;;;;;;;;;;;;;;;;;;5060072;28;1543;-75
2022/04/28 03:30:51;;;;;;;;;;;;;;;;;;5062252;28;1278;-75
2022/04/28 03:33:17;;;;;;;;;;;;;;;;;;5060805;28;1235;-75
2022/04/28 03:35:42;;;;;;;;;;;;;;;;;;5061799;28;1270;-75
2022/04/28 03:38:12;;;;;;;;;;;;;;;;;;5061525;28;1766;-74
2022/04/28 03:40:38;;;;;;;;;;;;;;;;;;5059602;28;1255;-75
2022/04/28 03:43:03;;;;;;;;;;;;;;;;;;5060084;28;1539;-73
2022/04/28 03:45:28;;;;;;;;;;;;;;;;;;5062929;28;1985;-73
2022/04/28 03:47:53;;;;;;;;;;;;;;;;;;5061444;28;1517;-73
2022/04/28 03:50:18;;;;;;;;;;;;;;;;;;5061618;28;1509;-74
2022/04/28 03:52:44;;;;;;;;;;;;;;;;;;5061880;28;1242;-73
2022/04/28 03:55:09;;;;;;;;;;;;;;;;;;5061254;28;1509;-74
2022/04/28 03:57:36;;;;;;;;;;;;;;;;;;5058207;28;1575;-74
2022/04/28 04:00:02;;;;;;;;;;;;;;;;;;5061876;28;1194;-73
2022/04/28 04:02:28;;;;;;;;;;;;;;;;;;5058947;28;1520;-74
2022/04/28 04:04:53;;;;;;;;;;;;;;;;;;5057401;28;1540;-76
2022/04/28 04:07:18;;;;;;;;;;;;;;;;;;5060924;28;1878;-75
2022/04/28 04:09:43;;;;;;;;;;;;;;;;;;5060445;28;1597;-74
2022/04/28 04:12:08;;;;;;;;;;;;;;;;;;5061352;28;1254;-75
2022/04/28 04:14:34;;;;;;;;;;;;;;;;;;5059015;28;1500;-75
2022/04/28 04:16:59;;;;;;;;;;;;;;;;;;5060730;28;1528;-75
2022/04/28 04:19:24;;;;;;;;;;;;;;;;;;5061318;28;1326;-75
2022/04/28 04:21:49;;;;;;;;;;;;;;;;;;5061677;28;1235;-75
2022/04/28 04:24:15;;;;;;;;;;;;;;;;;;5061010;28;1509;-75
2022/04/28 04:26:41;;;;;;;;;;;;;;;;;;5056103;28;2001;-76
2022/04/28 04:29:06;;;;;;;;;;;;;;;;;;5057993;28;1631;-75
2022/04/28 04:34:15;;;;;;;;;;;;;;;;;;5060692;28;1143;-74
2022/04/28 04:36:40;;;;;;;;;;;;;;;;;;5061369;28;1196;-75
2022/04/28 04:39:05;;;;;;;;;;;;;;;;;;5059683;28;1513;-74
2022/04/28 04:41:31;;;;;;;;;;;;;;;;;;5059348;28;1278;-73
2022/04/28 04:43:57;;;;;;;;;;;;;;;;;;5059083;28;1532;-74
2022/04/28 04:46:22;;;;;;;;;;;;;;;;;;5059252;28;1960;-74
2022/04/28 04:48:47;;;;;;;;;;;;;;;;;;5061286;28;1326;-73
2022/04/28 04:51:12;;;;;;;;;;;;;;;;;;5061335;28;1211;-72
2022/04/28 04:53:38;;;;;;;;;;;;;;;;;;5060552;28;1461;-73
2022/04/28 04:56:03;;;;;;;;;;;;;;;;;;5060624;28;1567;-74
2022/04/28 04:58:28;;;;;;;;;;;;;;;;;;5061025;28;1480;-75
2022/04/28 05:00:54;;;;;;;;;;;;;;;;;;5061083;28;1317;-76
2022/04/28 05:03:19;;;;;;;;;;;;;;;;;;5059586;28;1453;-74
2022/04/28 05:05:44;;;;;;;;;;;;;;;;;;5059217;28;1886;-76
2022/04/28 05:08:09;;;;;;;;;;;;;;;;;;5058957;28;1530;-74
2022/04/28 05:10:35;;;;;;;;;;;;;;;;;;5058762;28;1520;-73
2022/04/28 05:13:00;;;;;;;;;;;;;;;;;;5057678;28;1294;-75
2022/04/28 05:15:25;;;;;;;;;;;;;;;;;;5059495;28;1539;-75
2022/04/28 05:17:50;;;;;;;;;;;;;;;;;;5058677;28;1536;-75
2022/04/28 05:20:15;;;;;;;;;;;;;;;;;;5058141;28;1545;-75
2022/04/28 05:22:41;;;;;;;;;;;;;;;;;;5059746;28;1552;-76
2022/04/28 05:25:06;;;;;;;;;;;;;;;;;;5058747;28;1902;-73
2022/04/28 05:27:31;;;;;;;;;;;;;;;;;;5057282;28;1619;-73
2022/04/28 05:29:56;;;;;;;;;;;;;;;;;;5058009;28;1528;-71
2022/04/28 05:32:22;;;;;;;;;;;;;;;;;;5060222;28;1230;-70
2022/04/28 05:34:47;;;;;;;;;;;;;;;;;;5059769;28;1388;-70
2022/04/28 05:37:12;;;;;;;;;;;;;;;;;;5060272;28;1257;-70
2022/04/28 05:39:39;;;;;;;;;;;;;;;;;;5060521;28;1250;-71
2022/04/28 05:42:04;;;;;;;;;;;;;;;;;;5057527;28;1318;-71
2022/04/28 05:47:13;;;;;;;;;;;;;;;;;;5060636;28;1883;-71
2022/04/28 05:49:39;;;;;;;;;;;;;;;;;;5060050;28;1235;-71
2022/04/28 05:52:04;;;;;;;;;;;;;;;;;;5060316;28;1259;-72
2022/04/28 05:54:29;;;;;;;;;;;;;;;;;;5059175;28;1239;-71
2022/04/28 05:56:55;;;;;;;;;;;;;;;;;;5057868;28;1382;-71
2022/04/28 05:59:20;;;;;;;;;;;;;;;;;;5058322;28;1415;-68
2022/04/28 06:01:45;;;;;;;;;;;;;;;;;;5060267;28;1267;-67
2022/04/28 06:04:10;;;;;;;;;;;;;;;;;;5060472;28;1182;-67
2022/04/28 06:06:36;;;;;;;;;;;;;;;;;;5060174;28;1330;-67
2022/04/28 06:09:01;;;;;;;;;;;;;;;;;;5058266;28;1278;-66
2022/04/28 06:11:27;;;;;;;;;;;;;;;;;;5058526;28;1376;-66
2022/04/28 06:13:52;;;;;;;;;;;;;;;;;;5057371;28;1361;-66
2022/04/28 06:16:17;;;;;;;;;;;;;;;;;;5059824;28;1906;-67
2022/04/28 06:18:42;;;;;;;;;;;;;;;;;;5058207;28;1305;-67
2022/04/28 06:21:07;;;;;;;;;;;;;;;;;;5060119;28;1294;-67
2022/04/28 06:23:33;;;;;;;;;;;;;;;;;;5060421;28;1184;-68
2022/04/28 06:25:58;;;;;;;;;;;;;;;;;;5059175;28;1399;-67
2022/04/28 06:28:23;;;;;;;;;;;;;;;;;;5057793;28;1360;-67
2022/04/28 06:30:48;;;;;;;;;;;;;;;;;;5060052;28;1298;-68
2022/04/28 06:33:13;;;;;;;;;;;;;;;;;;5056910;28;1425;-67
2022/04/28 06:35:39;;;;;;;;;;;;;;;;;;5059774;28;1973;-67
2022/04/28 06:38:04;;;;;;;;;;;;;;;;;;5058906;28;1520;-67
2022/04/28 06:40:29;;;;;;;;;;;;;;;;;;5058391;28;1567;-67
2022/04/28 06:42:55;;;;;;;;;;;;;;;;;;5057009;28;1429;-67
2022/04/28 06:45:20;;;;;;;;;;;;;;;;;;5057764;28;1392;-67
2022/04/28 06:47:45;;;;;;;;;;;;;;;;;;5058974;28;1346;-67
2022/04/28 06:50:11;;;;;;;;;;;;;;;;;;5059695;28;1227;-66
2022/04/28 06:52:39;;;;;;;;;;;;;;;;;;5058080;28;1365;-68
2022/04/28 06:55:05;;;;;;;;;;;;;;;;;;5057233;28;1343;-68
2022/04/28 06:57:31;;;;;;;;;;;;;;;;;;5056237;28;1948;-68
2022/04/28 06:59:56;;;;;;;;;;;;;;;;;;5057201;28;1365;-67
2022/04/28 07:02:21;;;;;;;;;;;;;;;;;;5060092;28;1341;-67
2022/04/28 07:04:47;;;;;;;;;;;;;;;;;;5059393;28;1101;-67
2022/04/28 07:07:13;;;;;;;;;;;;;;;;;;5060867;28;1318;-68
2022/04/28 07:09:38;;;;;;;;;;;;;;;;;;5062122;28;1271;-68
2022/04/28 07:12:03;;;;;;;;;;;;;;;;;;5061581;28;1427;-67
2022/04/28 07:14:28;;;;;;;;;;;;;;;;;;5064324;28;1360;-67
2022/04/28 07:16:54;;;;;;;;;;;;;;;;;;5063399;28;1910;-67
2022/04/28 07:19:19;;;;;;;;;;;;;;;;;;5063391;28;1362;-68
2022/04/28 07:21:44;;;;;;;;;;;;;;;;;;5065744;28;1250;-67
2022/04/28 07:24:09;;;;;;;;;;;;;;;;;;5063182;28;1297;-68
2022/04/28 07:26:34;;;;;;;;;;;;;;;;;;5063614;28;1369;-68
2022/04/28 07:29:00;;;;;;;;;;;;;;;;;;5062016;28;1437;-66
2022/04/28 07:31:25;;;;;;;;;;;;;;;;;;5062656;28;1246;-67
2022/04/28 07:33:50;;;;;;;;;;;;;;;;;;5056947;28;1330;-66
2022/04/28 07:36:16;;;;;;;;;;;;;;;;;;5061496;28;1901;-67
2022/04/28 07:38:41;;;;;;;;;;;;;;;;;;5062965;28;1337;-65
2022/04/28 07:41:07;;;;;;;;;;;;;;;;;;5055738;28;1560;-65
2022/04/28 07:43:32;;;;;;;;;;;;;;;;;;5057907;28;1318;-65
2022/04/28 07:45:57;;;;;;;;;;;;;;;;;;5062242;28;1298;-64
2022/04/28 07:48:22;;;;;;;;;;;;;;;;;;5062166;28;1258;-66
2022/04/28 07:50:48;;;;;;;;;;;;;;;;;;5060763;28;1377;-66
2022/04/28 07:53:13;;;;;;;;;;;;;;;;;;5061106;28;1179;-66
2022/04/28 07:55:38;;;;;;;;;;;;;;;;;;5061900;28;1906;-65
2022/04/28 07:58:04;;;;;;;;;;;;;;;;;;5060953;28;1341;-66
2022/04/28 08:00:29;;;;;;;;;;;;;;;;;;5061845;28;1297;-66
2022/04/28 08:02:54;;;;;;;;;;;;;;;;;;5060413;28;1498;-66
2022/04/28 08:05:19;;;;;;;;;;;;;;;;;;5061726;28;1454;-66
2022/04/28 08:07:45;;;;;;;;;;;;;;;;;;5060025;28;1478;-66
2022/04/28 08:10:10;;;;;;;;;;;;;;;;;;5061711;28;1337;-66
2022/04/28 08:12:35;;;;;;;;;;;;;;;;;;5061828;28;1428;-66
2022/04/28 08:15:00;;;;;;;;;;;;;;;;;;5061463;28;1248;-66
2022/04/28 08:17:26;;;;;;;;;;;;;;;;;;5061664;28;1898;-66
2022/04/28 08:19:51;;;;;;;;;;;;;;;;;;5061077;28;1325;-66
2022/04/28 08:22:17;;;;;;;;;;;;;;;;;;5061963;28;1338;-66
2022/04/28 08:24:42;;;;;;;;;;;;;;;;;;5060898;28;1309;-66
2022/04/28 08:27:07;;;;;;;;;;;;;;;;;;5060008;28;1277;-66
2022/04/28 08:29:32;;;;;;;;;;;;;;;;;;5060767;28;1333;-67
2022/04/28 08:31:58;;;;;;;;;;;;;;;;;;5060990;28;1309;-66
2022/04/28 08:34:23;;;;;;;;;;;;;;;;;;5061464;28;1092;-67
2022/04/28 08:36:49;;;;;;;;;;;;;;;;;;5060879;28;1963;-66
2022/04/28 08:39:14;;;;;;;;;;;;;;;;;;5061218;28;1353;-66
2022/04/28 08:41:47;;;;;;;;;;;;;;;;;;5060622;28;1301;-66
2022/04/28 08:44:26;;;;;;;;;;;;;;;;;;5060767;28;1289;-66
2022/04/28 08:46:52;;;;;;;;;;;;;;;;;;5059790;28;1674;-67
2022/04/28 08:49:22;;;;;;;;;;;;;;;;;;5059473;28;1337;-67
2022/04/28 08:51:49;;;;;;;;;;;;;;;;;;5061870;28;1203;-66
2022/04/28 08:54:14;;;;;;;;;;;;;;;;;;5059456;28;1448;-67
2022/04/28 08:56:40;;;;;;;;;;;;;;;;;;5060869;28;1893;-67
2022/04/28 08:59:05;;;;;;;;;;;;;;;;;;5059929;28;1416;-67
2022/04/28 09:01:31;;;;;;;;;;;;;;;;;;5060385;28;1387;-68
2022/04/28 09:03:57;;;;;;;;;;;;;;;;;;5060613;28;1345;-66
2022/04/28 09:06:23;;;;;;;;;;;;;;;;;;5059792;28;1383;-67
2022/04/28 09:08:49;;;;;;;;;;;;;;;;;;5060506;28;1392;-66
2022/04/28 09:11:17;;;;;;;;;;;;;;;;;;5060527;28;1251;-66
2022/04/28 09:16:27;;;;;;;;;;;;;;;;;;5058297;28;1898;-65
2022/04/28 09:18:53;;;;;;;;;;;;;;;;;;5060613;28;1349;-65
2022/04/28 09:21:20;;;;;;;;;;;;;;;;;;5059298;28;1365;-65
2022/04/28 09:23:49;;;;;;;;;;;;;;;;;;5059840;28;1575;-66
2022/04/28 09:26:14;;;;;;;;;;;;;;;;;;5058538;28;1359;-66
2022/04/28 09:28:39;;;;;;;;;;;;;;;;;;5059898;28;1314;-65
2022/04/28 09:31:08;;;;;;;;;;;;;;;;;;5059226;28;1302;-65
2022/04/28 09:33:33;;;;;;;;;;;;;;;;;;5059817;28;1353;-65
2022/04/28 09:35:59;;;;;;;;;;;;;;;;;;5060789;28;1909;-66
2022/04/28 09:38:24;;;;;;;;;;;;;;;;;;5059839;28;1342;-66
2022/04/28 09:43:34;;;;;;;;;;;;;;;;;;5060284;28;1059;-65
2022/04/28 09:46:00;;;;;;;;;;;;;;;;;;5059387;28;1342;-65
2022/04/28 09:48:29;;;;;;;;;;;;;;;;;;5059929;28;1357;-66
2022/04/28 09:51:13;;;;;;;;;;;;;;;;;;5059136;28;1545;-65
2022/04/28 09:53:39;;;;;;;;;;;;;;;;;;5059151;28;1209;-66
2022/04/28 09:56:05;;;;;;;;;;;;;;;;;;5060253;28;1967;-66
2022/04/28 09:58:31;;;;;;;;;;;;;;;;;;5059604;28;1362;-66
2022/04/28 10:01:00;;;;;;;;;;;;;;;;;;5059962;28;1337;-66
2022/04/28 10:03:27;;;;;;;;;;;;;;;;;;5060326;28;1357;-66
2022/04/28 10:05:52;;;;;;;;;;;;;;;;;;5059702;28;1484;-65
2022/04/28 10:08:17;;;;;;;;;;;;;;;;;;5059097;28;1358;-66
2022/04/28 10:10:43;;;;;;;;;;;;;;;;;;5058349;28;1299;-66
2022/04/28 10:13:08;;;;;;;;;;;;;;;;;;5059932;28;1317;-66
2022/04/28 10:15:34;;;;;;;;;;;;;;;;;;5059869;28;1874;-66
2022/04/28 10:18:04;;;;;;;;;;;;;;;;;;5059225;28;1408;-66
2022/04/28 10:20:35;;;;;;;;;;;;;;;;;;5058774;28;1249;-66
2022/04/28 10:23:01;;;;;;;;;;;;;;;;;;5058639;28;1380;-65
2022/04/28 10:34:13;;;;;;;;;;;;;;;;;;5059025;28;1370;-66
2022/04/28 10:36:50;;;;;;;;;;;;;;;;;;5059542;28;1973;-66
2022/04/28 10:39:16;;;;;;;;;;;;;;;;;;5058999;28;1378;-65
2022/04/28 10:41:41;;;;;;;;;;;;;;;;;;5058481;28;1282;-66
2022/04/28 10:44:18;;;;;;;;;;;;;;;;;;5060577;28;1479;-66
2022/04/28 10:46:59;;;;;;;;;;;;;;;;;;5062471;28;1282;-65
2022/04/28 10:49:25;;;;;;;;;;;;;;;;;;5062186;28;1452;-66
2022/04/28 10:51:55;;;;;;;;;;;;;;;;;;5062929;28;1223;-66
2022/04/28 10:54:23;;;;;;;;;;;;;;;;;;5062695;28;1497;-66
2022/04/28 10:56:54;;;;;;;;;;;;;;;;;;5061506;28;1969;-65
2022/04/28 10:59:29;;;;;;;;;;;;;;;;;;5061456;28;1359;-66
2022/04/28 11:02:21;;;;;;;;;;;;;;;;;;5062582;28;1306;-66
2022/04/28 11:04:55;;;;;;;;;;;;;;;;;;5061243;28;1339;-66
2022/04/28 11:07:24;;;;;;;;;;;;;;;;;;5061702;28;1275;-67
2022/04/28 11:10:10;;;;;;;;;;;;;;;;;;5060877;28;1188;-66
2022/04/28 11:12:37;;;;;;;;;;;;;;;;;;5060453;28;1432;-65
2022/04/28 11:15:13;;;;;;;;;;;;;;;;;;5061869;28;1395;-65
2022/04/28 11:17:39;;;;;;;;;;;;;;;;;;5059513;28;1897;-66
2022/04/28 11:20:11;;;;;;;;;;;;;;;;;;5062830;28;1266;-69
2022/04/28 11:22:39;;;;;;;;;;;;;;;;;;5062588;28;1381;-69
2022/04/28 11:25:12;;;;;;;;;;;;;;;;;;5061671;28;1338;-68
2022/04/28 11:27:38;;;;;;;;;;;;;;;;;;5060271;28;1275;-70
2022/04/28 11:30:04;;;;;;;;;;;;;;;;;;5062489;28;1424;-69
2022/04/28 11:32:29;;;;;;;;;;;;;;;;;;5061221;28;1518;-70
2022/04/28 11:34:55;;;;;;;;;;;;;;;;;;5060444;28;1575;-70
2022/04/28 11:37:24;;;;;;;;;;;;;;;;;;5060229;28;1957;-70
2022/04/28 11:39:50;;;;;;;;;;;;;;;;;;5058849;28;1478;-69
2022/04/28 11:42:16;;;;;;;;;;;;;;;;;;5057435;28;1371;-71
2022/04/28 11:44:52;;;;;;;;;;;;;;;;;;5058227;28;1618;-70
2022/04/28 11:47:17;;;;;;;;;;;;;;;;;;5057295;28;1688;-71
2022/04/28 11:49:42;;;;;;;;;;;;;;;;;;5058981;28;1347;-69
2022/04/28 11:52:21;;;;;;;;;;;;;;;;;;5061396;28;1620;-70
2022/04/28 11:55:06;;;;;;;;;;;;;;;;;;5061573;28;1318;-69
2022/04/28 11:57:31;;;;;;;;;;;;;;;;;;5061133;28;1953;-67
2022/04/28 11:59:58;;;;;;;;;;;;;;;;;;5061552;28;1771;-67
2022/04/28 12:02:24;;;;;;;;;;;;;;;;;;5060585;28;1618;-68
2022/04/28 12:04:49;;;;;;;;;;;;;;;;;;5061757;28;1193;-67
2022/04/28 12:07:18;;;;;;;;;;;;;;;;;;5061323;28;1259;-69
2022/04/28 12:15:12;;;;;;;;;;;;;;;;;;5060629;28;1460;-68
2022/04/28 12:20:35;;;;;;;;;;;;;;;;;;5060115;28;1407;-68
2022/04/28 12:23:01;;;;;;;;;;;;;;;;;;5060219;28;1401;-68
2022/04/28 12:25:26;;;;;;;;;;;;;;;;;;5061227;28;1378;-68
2022/04/28 12:27:53;;;;;;;;;;;;;;;;;;5062017;28;1278;-68
2022/04/28 12:30:19;;;;;;;;;;;;;;;;;;5060250;28;1216;-67
2022/04/28 12:32:48;;;;;;;;;;;;;;;;;;5061703;28;1243;-68
2022/04/28 12:35:27;;;;;;;;;;;;;;;;;;5059942;28;1441;-67
2022/04/28 12:38:10;;;;;;;;;;;;;;;;;;5058213;28;1487;-68
2022/04/28 12:40:36;;;;;;;;;;;;;;;;;;5057990;28;1521;-66
2022/04/28 12:43:01;;;;;;;;;;;;;;;;;;5061343;28;1227;-66
2022/04/28 12:45:35;;;;;;;;;;;;;;;;;;5060071;28;1410;-65
2022/04/28 12:48:01;;;;;;;;;;;;;;;;;;5060241;28;1357;-66
2022/04/28 12:50:26;;;;;;;;;;;;;;;;;;5059921;28;1395;-66
2022/04/28 12:52:52;;;;;;;;;;;;;;;;;;5061070;28;1336;-67
2022/04/28 12:55:19;;;;;;;;;;;;;;;;;;5059844;28;1200;-67
2022/04/28 12:57:48;;;;;;;;;;;;;;;;;;5060422;28;1969;-67
2022/04/28 13:00:14;;;;;;;;;;;;;;;;;;5059928;28;1401;-66
2022/04/28 13:02:44;;;;;;;;;;;;;;;;;;5060007;28;1282;-66
2022/04/28 13:05:12;;;;;;;;;;;;;;;;;;5059622;28;1450;-66
2022/04/28 13:07:38;;;;;;;;;;;;;;;;;;5056864;28;1442;-67
2022/04/28 13:10:03;;;;;;;;;;;;;;;;;;5059031;28;1355;-67
2022/04/28 13:12:28;;;;;;;;;;;;;;;;;;5058790;28;1435;-68
2022/04/28 13:14:53;;;;;;;;;;;;;;;;;;5061113;28;1180;-68
2022/04/28 13:17:19;;;;;;;;;;;;;;;;;;5058437;28;1897;-69
2022/04/28 13:19:44;;;;;;;;;;;;;;;;;;5059062;28;1342;-68
2022/04/28 13:22:09;;;;;;;;;;;;;;;;;;5059851;28;1430;-70
2022/04/28 13:24:34;;;;;;;;;;;;;;;;;;5059217;28;1362;-69
2022/04/28 13:26:59;;;;;;;;;;;;;;;;;;5057849;28;1359;-69
2022/04/28 13:29:25;;;;;;;;;;;;;;;;;;5060790;28;1342;-68
2022/04/28 13:31:50;;;;;;;;;;;;;;;;;;5059714;28;1368;-68
2022/04/28 13:34:15;;;;;;;;;;;;;;;;;;5061132;28;1317;-68
2022/04/28 13:36:40;;;;;;;;;;;;;;;;;;5060313;28;1890;-68
2022/04/28 13:39:05;;;;;;;;;;;;;;;;;;5060024;28;1263;-68
2022/04/28 13:41:31;;;;;;;;;;;;;;;;;;5059989;28;1336;-68
2022/04/28 13:43:57;;;;;;;;;;;;;;;;;;5059193;28;1281;-68
2022/04/28 13:46:22;;;;;;;;;;;;;;;;;;5059466;28;1585;-69
2022/04/28 13:48:47;;;;;;;;;;;;;;;;;;5059569;28;1381;-70
2022/04/28 13:51:12;;;;;;;;;;;;;;;;;;5063312;28;1192;-69
2022/04/28 13:53:38;;;;;;;;;;;;;;;;;;5058692;28;1376;-66
2022/04/28 13:56:05;;;;;;;;;;;;;;;;;;5061255;28;1893;-72
2022/04/28 13:58:30;;;;;;;;;;;;;;;;;;5059108;28;1290;-68
2022/04/28 14:00:55;;;;;;;;;;;;;;;;;;5056438;28;1379;-66
2022/04/28 14:03:22;;;;;;;;;;;;;;;;;;5059068;28;1339;-66
2022/04/28 14:05:48;;;;;;;;;;;;;;;;;;5057955;28;1344;-65
2022/04/28 14:08:13;;;;;;;;;;;;;;;;;;5058789;28;1364;-65
2022/04/28 14:10:38;;;;;;;;;;;;;;;;;;5059994;28;1242;-65
2022/04/28 14:13:03;;;;;;;;;;;;;;;;;;5059928;28;1310;-65
2022/04/28 14:15:29;;;;;;;;;;;;;;;;;;5058079;28;1954;-65
2022/04/28 14:17:54;;;;;;;;;;;;;;;;;;5060241;28;1366;-66
2022/04/28 14:20:20;;;;;;;;;;;;;;;;;;5066581;28;1195;-67
2022/04/28 14:22:46;;;;;;;;;;;;;;;;;;5061626;28;1420;-65
2022/04/28 14:25:11;;;;;;;;;;;;;;;;;;5066615;28;1337;-65
2022/04/28 14:27:37;;;;;;;;;;;;;;;;;;5067020;28;1404;-66
2022/04/28 14:30:05;;;;;;;;;;;;;;;;;;5066048;28;1442;-65
2022/04/28 14:32:31;;;;;;;;;;;;;;;;;;5066676;28;1128;-65
2022/04/28 14:34:56;;;;;;;;;;;;;;;;;;5066103;28;1393;-65
2022/04/28 14:37:21;;;;;;;;;;;;;;;;;;5066021;28;1910;-65
2022/04/28 14:39:46;;;;;;;;;;;;;;;;;;5065672;28;1423;-65
2022/04/28 14:42:12;;;;;;;;;;;;;;;;;;5066479;28;1346;-65
2022/04/28 14:44:37;;;;;;;;;;;;;;;;;;5064654;28;1297;-65
2022/04/28 14:47:02;;;;;;;;;;;;;;;;;;5066017;28;1329;-65
2022/04/28 14:52:21;;;;;;;;;;;;;;;;;;5065450;28;1056;-65
2022/04/28 14:54:47;;;;;;;;;;;;;;;;;;5066180;28;1419;-65
2022/04/28 14:57:12;;;;;;;;;;;;;;;;;;5068408;28;1983;-65
2022/04/28 14:59:37;;;;;;;;;;;;;;;;;;5065275;28;1334;-65
2022/04/28 15:02:03;;;;;;;;;;;;;;;;;;5066073;28;1325;-66
2022/04/28 15:04:28;;;;;;;;;;;;;;;;;;5065803;28;1298;-66
2022/04/28 15:06:53;;;;;;;;;;;;;;;;;;5065358;28;1739;-66
2022/04/28 15:09:18;;;;;;;;;;;;;;;;;;5064908;28;1295;-66
2022/04/28 15:11:44;;;;;;;;;;;;;;;;;;5064944;28;1557;-65
2022/04/28 15:14:10;;;;;;;;;;;;;;;;;;5064932;28;1210;-64
2022/04/28 15:16:35;;;;;;;;;;;;;;;;;;5065378;28;1967;-65
2022/04/28 15:19:00;;;;;;;;;;;;;;;;;;5065204;28;1390;-65
2022/04/28 15:21:26;;;;;;;;;;;;;;;;;;5065189;28;1254;-65
2022/04/28 15:23:51;;;;;;;;;;;;;;;;;;5065694;28;1337;-64
2022/04/28 15:26:18;;;;;;;;;;;;;;;;;;5065569;28;1338;-64
2022/04/28 15:28:44;;;;;;;;;;;;;;;;;;5065705;28;1524;-64
2022/04/28 15:31:09;;;;;;;;;;;;;;;;;;5061304;28;1317;-64
2022/04/28 15:33:34;;;;;;;;;;;;;;;;;;5062021;28;1315;-64
2022/04/28 15:35:59;;;;;;;;;;;;;;;;;;5062092;28;1905;-65
2022/04/28 15:38:25;;;;;;;;;;;;;;;;;;5061642;28;1429;-64
2022/04/28 15:40:50;;;;;;;;;;;;;;;;;;5062289;28;1246;-65
2022/04/28 15:43:15;;;;;;;;;;;;;;;;;;5061618;28;1313;-65
2022/04/28 15:45:40;;;;;;;;;;;;;;;;;;5061794;28;1431;-64
2022/04/28 15:48:06;;;;;;;;;;;;;;;;;;5061045;28;1351;-65
2022/04/28 15:50:31;;;;;;;;;;;;;;;;;;5061582;28;1368;-66
2022/04/28 15:52:56;;;;;;;;;;;;;;;;;;5062206;28;1232;-65
2022/04/28 15:55:21;;;;;;;;;;;;;;;;;;5061634;28;1223;-65
2022/04/28 15:57:47;;;;;;;;;;;;;;;;;;5061641;28;1890;-65
2022/04/28 16:00:16;;;;;;;;;;;;;;;;;;5060941;28;1557;-65
2022/04/28 16:02:41;;;;;;;;;;;;;;;;;;5062670;28;1289;-65
2022/04/28 16:05:07;;;;;;;;;;;;;;;;;;5062515;28;1447;-65
2022/04/28 16:07:34;;;;;;;;;;;;;;;;;;5069111;28;1259;-64
2022/04/28 16:09:59;;;;;;;;;;;;;;;;;;5064231;28;1344;-65
2022/04/28 16:12:26;;;;;;;;;;;;;;;;;;5061428;28;1333;-65
2022/04/28 16:14:52;;;;;;;;;;;;;;;;;;5061558;28;1290;-65
2022/04/28 16:17:17;;;;;;;;;;;;;;;;;;5059582;28;1964;-65
2022/04/28 16:19:43;;;;;;;;;;;;;;;;;;5061358;28;1282;-65
2022/04/28 16:22:08;;;;;;;;;;;;;;;;;;5061271;28;1388;-65
2022/04/28 16:24:34;;;;;;;;;;;;;;;;;;5061439;28;1332;-65
2022/04/28 16:26:59;;;;;;;;;;;;;;;;;;5060781;28;1336;-65
2022/04/28 16:29:24;;;;;;;;;;;;;;;;;;5060243;28;1297;-65
2022/04/28 16:31:50;;;;;;;;;;;;;;;;;;5061577;28;1311;-65
2022/04/28 16:34:17;;;;;;;;;;;;;;;;;;5061278;28;1259;-65
2022/04/28 16:36:43;;;;;;;;;;;;;;;;;;5061391;28;1959;-66
2022/04/28 16:39:08;;;;;;;;;;;;;;;;;;5060161;28;1357;-65
2022/04/28 16:41:33;;;;;;;;;;;;;;;;;;5060167;28;1255;-65
2022/04/28 16:43:58;;;;;;;;;;;;;;;;;;5060995;28;1301;-65
2022/04/28 16:46:24;;;;;;;;;;;;;;;;;;5060719;28;1322;-65
2022/04/28 16:48:49;;;;;;;;;;;;;;;;;;5060516;28;1369;-64
2022/04/28 16:51:15;;;;;;;;;;;;;;;;;;5060411;28;1309;-64
2022/04/28 16:53:42;;;;;;;;;;;;;;;;;;5061341;28;1263;-64
2022/04/28 16:56:07;;;;;;;;;;;;;;;;;;5059466;28;1906;-65
2022/04/28 16:58:35;;;;;;;;;;;;;;;;;;5060243;28;1366;-64
2022/04/28 17:01:00;;;;;;;;;;;;;;;;;;5060268;28;1271;-66
2022/04/28 17:06:09;;;;;;;;;;;;;;;;;;5058687;28;1219;-65
2022/04/28 17:08:35;;;;;;;;;;;;;;;;;;5058776;28;1353;-65
2022/04/28 17:11:00;;;;;;;;;;;;;;;;;;5057194;28;1449;-63
2022/04/28 17:13:26;;;;;;;;;;;;;;;;;;5058188;28;1377;-64
2022/04/28 17:15:51;;;;;;;;;;;;;;;;;;5059265;28;1969;-64
2022/04/28 17:18:17;;;;;;;;;;;;;;;;;;5059121;28;1541;-64
2022/04/28 17:20:42;;;;;;;;;;;;;;;;;;5060488;28;1353;-64
2022/04/28 17:23:07;;;;;;;;;;;;;;;;;;5058033;28;1286;-64
2022/04/28 17:25:32;;;;;;;;;;;;;;;;;;5059847;28;1411;-63
2022/04/28 17:27:59;;;;;;;;;;;;;;;;;;5059879;28;1392;-64
2022/04/28 17:30:25;;;;;;;;;;;;;;;;;;5059358;28;1450;-64
2022/04/28 17:32:50;;;;;;;;;;;;;;;;;;5060499;28;1282;-64
2022/04/28 17:35:15;;;;;;;;;;;;;;;;;;5060476;28;1144;-65
2022/04/28 17:37:40;;;;;;;;;;;;;;;;;;5059403;28;1967;-64
2022/04/28 17:40:06;;;;;;;;;;;;;;;;;;5058414;28;1227;-64